createdAt,value
2019-02-19T00:00:33.078Z,49.10
2019-02-19T00:05:37.816Z,49.20
2019-02-19T00:10:42.976Z,49.20
2019-02-19T00:15:49.224Z,49.30
2019-02-19T00:20:53.952Z,49.30
2019-02-19T00:25:58.631Z,49.20
2019-02-19T00:31:04.600Z,49.00
2019-02-19T00:36:09.293Z,49.10
2019-02-19T00:41:14.367Z,49.30
2019-02-19T00:46:19.027Z,49.30
2019-02-19T00:51:24.886Z,49.20
2019-02-19T00:56:31.124Z,49.30
2019-02-19T01:01:35.820Z,49.40
2019-02-19T01:06:40.784Z,49.50
2019-02-19T01:11:45.468Z,49.70
2019-02-19T01:16:50.132Z,49.70
2019-02-19T01:21:55.477Z,49.70
2019-02-19T01:27:00.560Z,49.70
2019-02-19T01:32:05.380Z,49.80
2019-02-19T01:37:10.766Z,49.80
2019-02-19T01:42:16.956Z,49.70
2019-02-19T01:47:22.459Z,49.60
2019-02-19T01:52:28.635Z,49.50
2019-02-19T01:57:33.312Z,49.50
2019-02-19T02:02:38.228Z,49.80
2019-02-19T02:07:42.903Z,49.70
2019-02-19T02:12:50.771Z,49.80
2019-02-19T02:17:57.383Z,49.70
2019-02-19T02:23:02.303Z,49.60
2019-02-19T02:28:08.847Z,49.80
2019-02-19T02:33:14.873Z,50.40
2019-02-19T02:38:19.543Z,50.30
2019-02-19T02:43:25.198Z,50.40
2019-02-19T02:48:30.847Z,50.30
2019-02-19T02:53:36.757Z,50.40
2019-02-19T02:58:42.593Z,50.50
2019-02-19T03:03:50.122Z,50.50
2019-02-19T03:08:55.280Z,50.60
2019-02-19T03:14:00.444Z,50.50
2019-02-19T03:19:06.640Z,50.50
2019-02-19T03:24:13.306Z,51.30
2019-02-19T03:29:18.219Z,50.60
2019-02-19T03:34:24.119Z,50.60
2019-02-19T03:39:29.853Z,50.60
2019-02-19T03:44:38.965Z,50.60
2019-02-19T03:49:43.879Z,50.60
2019-02-19T03:54:48.788Z,50.50
2019-02-19T03:59:53.746Z,50.60
2019-02-19T04:04:58.391Z,50.60
2019-02-19T04:10:03.456Z,50.70
2019-02-19T04:15:09.276Z,50.70
2019-02-19T04:20:14.957Z,50.90
2019-02-19T04:25:23.741Z,50.60
2019-02-19T04:30:28.413Z,50.20
2019-02-19T04:35:34.695Z,50.10
2019-02-19T04:40:41.919Z,50.00
2019-02-19T04:45:46.584Z,50.20
2019-02-19T04:50:52.486Z,50.50
2019-02-19T04:55:57.460Z,50.70
2019-02-19T05:01:02.393Z,50.90
2019-02-19T05:06:10.425Z,51.00
2019-02-19T05:11:15.128Z,51.10
2019-02-19T05:16:20.903Z,51.10
2019-02-19T05:21:25.585Z,51.10
2019-02-19T05:26:30.251Z,51.10
2019-02-19T05:31:36.305Z,51.10
2019-02-19T05:36:40.980Z,51.20
2019-02-19T05:41:45.883Z,51.40
2019-02-19T05:47:04.592Z,51.50
2019-02-19T05:52:00.956Z,51.70
2019-02-19T05:57:05.617Z,51.70
2019-02-19T06:02:10.292Z,51.70
2019-02-19T06:07:15.743Z,51.90
2019-02-19T06:12:21.995Z,52.00
2019-02-19T06:17:26.901Z,52.00
2019-02-19T06:22:31.583Z,52.10
2019-02-19T06:27:36.263Z,52.00
2019-02-19T06:32:41.074Z,51.90
2019-02-19T06:37:46.246Z,52.10
2019-02-19T06:42:52.580Z,52.10
2019-02-19T06:47:58.747Z,52.10
2019-02-19T06:53:03.464Z,52.30
2019-02-19T06:58:08.731Z,52.30
2019-02-19T07:03:21.628Z,52.20
2019-02-19T07:08:27.519Z,52.30
2019-02-19T07:13:34.022Z,52.40
2019-02-19T07:18:38.708Z,52.40
2019-02-19T07:23:49.556Z,52.20
2019-02-19T07:28:54.524Z,52.20
2019-02-19T07:33:59.282Z,52.30
2019-02-19T07:39:05.926Z,52.60
2019-02-19T07:44:10.876Z,52.70
2019-02-19T07:49:16.223Z,52.80
2019-02-19T07:54:20.983Z,52.90
2019-02-19T07:59:36.478Z,52.90
2019-02-19T08:04:33.976Z,53.00
2019-02-19T08:09:38.780Z,53.00
2019-02-19T08:14:44.102Z,53.10
2019-02-19T08:19:49.383Z,53.50
2019-02-19T08:24:55.429Z,53.70
2019-02-19T08:30:01.446Z,53.60
2019-02-19T08:35:06.450Z,53.80
2019-02-19T08:40:12.826Z,53.80
2019-02-19T08:45:17.669Z,53.80
2019-02-19T08:50:22.785Z,54.00
2019-02-19T08:55:27.626Z,54.00
2019-02-19T09:00:32.708Z,54.00
2019-02-19T09:05:38.023Z,54.10
2019-02-19T09:10:42.761Z,54.30
2019-02-19T09:15:47.584Z,54.50
2019-02-19T09:20:52.363Z,54.60
2019-02-19T09:25:57.112Z,54.50
2019-02-19T09:31:03.473Z,54.80
2019-02-19T09:36:11.445Z,55.50
2019-02-19T09:41:16.160Z,54.90
2019-02-19T09:46:20.898Z,55.20
2019-02-19T09:51:27.494Z,55.30
2019-02-19T09:56:32.281Z,55.40
2019-02-19T10:01:37.053Z,55.40
2019-02-19T10:06:42.012Z,55.30
2019-02-19T10:11:47.063Z,55.90
2019-02-19T10:16:51.770Z,55.60
2019-02-19T10:21:56.476Z,55.70
2019-02-19T10:27:05.579Z,55.60
2019-02-19T10:32:10.387Z,55.70
2019-02-19T10:37:15.179Z,55.70
2019-02-19T10:42:19.972Z,55.90
2019-02-19T10:47:24.989Z,56.00
2019-02-19T10:52:29.743Z,56.10
2019-02-19T10:57:36.829Z,56.40
2019-02-19T11:02:42.792Z,56.50
2019-02-19T11:07:47.480Z,56.90
2019-02-19T11:12:52.187Z,57.00
2019-02-19T11:17:57.128Z,57.00
2019-02-19T11:23:01.837Z,57.00
2019-02-19T11:28:06.600Z,56.80
2019-02-19T11:33:15.861Z,56.60
2019-02-19T11:38:17.744Z,56.40
2019-02-19T11:43:22.722Z,56.40
2019-02-19T11:48:36.595Z,56.20
2019-02-19T11:53:35.253Z,56.00
2019-02-19T11:58:40.467Z,55.90
2019-02-19T12:03:47.944Z,55.60
2019-02-19T12:08:54.496Z,55.20
2019-02-19T12:13:59.208Z,54.60
2019-02-19T12:19:03.933Z,54.30
2019-02-19T12:24:08.631Z,54.00
2019-02-19T12:29:13.542Z,54.30
2019-02-19T12:34:19.661Z,54.50
2019-02-19T12:39:25.394Z,54.60
2019-02-19T12:44:30.075Z,54.30
2019-02-19T12:49:36.051Z,54.60
2019-02-19T12:54:42.128Z,54.60
2019-02-19T12:59:46.825Z,54.20
2019-02-19T13:04:51.669Z,54.00
2019-02-19T13:09:58.625Z,54.00
2019-02-19T13:15:05.150Z,54.00
2019-02-19T13:20:12.715Z,54.10
2019-02-19T13:25:17.516Z,53.40
2019-02-19T13:30:25.129Z,52.80
2019-02-19T13:35:30.513Z,52.80
2019-02-19T13:40:36.236Z,51.90
2019-02-19T13:45:42.036Z,51.90
2019-02-19T13:50:48.227Z,51.80
2019-02-19T13:55:55.637Z,51.70
2019-02-19T14:01:00.771Z,51.10
2019-02-19T14:06:06.022Z,51.10
2019-02-19T14:11:10.732Z,51.50
2019-02-19T14:16:20.404Z,51.40
2019-02-19T14:21:53.194Z,51.40
2019-02-19T14:27:14.124Z,51.10
2019-02-19T14:32:47.329Z,50.30
2019-02-19T14:38:20.749Z,50.40
2019-02-19T14:44:00.225Z,50.50
2019-02-19T14:49:16.369Z,50.40
2019-02-19T14:54:42.376Z,49.90
2019-02-19T15:00:06.676Z,50.00
2019-02-19T15:05:36.612Z,49.70
2019-02-19T15:11:19.360Z,49.40
2019-02-19T15:16:46.293Z,49.00
2019-02-19T15:22:21.981Z,48.90
2019-02-19T15:27:45.088Z,49.00
2019-02-19T15:32:57.641Z,49.10
2019-02-19T15:38:20.829Z,49.30
2019-02-19T15:43:36.141Z,49.30
2019-02-19T15:49:00.513Z,48.80
2019-02-19T15:54:18.469Z,48.90
2019-02-19T15:59:55.660Z,48.80
2019-02-19T16:05:19.019Z,48.90
2019-02-19T16:10:44.200Z,48.80
2019-02-19T16:16:10.906Z,49.00
2019-02-19T16:21:23.108Z,49.10
2019-02-19T16:26:49.673Z,49.10
2019-02-19T16:32:22.373Z,49.10
2019-02-19T16:37:36.676Z,49.00
2019-02-19T16:42:51.530Z,49.00
2019-02-19T16:48:14.073Z,49.10
2019-02-19T16:53:50.007Z,49.10
2019-02-19T16:59:07.341Z,49.40
2019-02-19T17:04:18.508Z,49.30
2019-02-19T17:09:46.418Z,49.30
2019-02-19T17:15:10.273Z,49.40
2019-02-19T17:20:52.968Z,49.40
2019-02-19T17:26:21.513Z,49.30
2019-02-19T17:31:40.265Z,49.50
2019-02-19T17:37:22.718Z,49.60
2019-02-19T17:42:55.232Z,49.70
2019-02-19T17:48:09.476Z,49.80
2019-02-19T17:53:45.857Z,49.90
2019-02-19T17:59:09.045Z,50.20
2019-02-19T18:04:19.190Z,50.20
2019-02-19T18:09:43.705Z,50.20
2019-02-19T18:15:18.340Z,50.20
2019-02-19T18:20:24.613Z,50.20
2019-02-19T18:25:33.755Z,50.30
2019-02-19T18:30:36.932Z,50.40
2019-02-19T18:35:42.735Z,50.40
2019-02-19T18:40:47.907Z,50.40
2019-02-19T18:45:52.631Z,50.30
2019-02-19T18:50:58.867Z,50.30
2019-02-19T18:56:05.853Z,50.20
2019-02-19T19:01:10.796Z,50.20
2019-02-19T19:06:18.403Z,50.30
2019-02-19T19:11:24.559Z,50.20
2019-02-19T19:16:31.630Z,50.20
2019-02-19T19:21:36.761Z,50.20
2019-02-19T19:26:42.708Z,50.10
2019-02-19T19:31:47.735Z,50.10
2019-02-19T19:36:52.547Z,50.20
2019-02-19T19:41:58.622Z,50.20
2019-02-19T19:47:03.533Z,50.00
2019-02-19T19:52:09.519Z,49.90
2019-02-19T19:57:14.817Z,49.80
2019-02-19T20:02:21.032Z,49.90
2019-02-19T20:07:26.758Z,49.90
2019-02-19T20:12:31.861Z,50.00
2019-02-19T20:17:36.669Z,50.20
2019-02-19T20:22:41.482Z,50.10
2019-02-19T20:27:46.482Z,50.30
2019-02-19T20:32:53.001Z,50.90
2019-02-19T20:37:58.250Z,50.10
2019-02-19T20:43:03.043Z,50.10
2019-02-19T20:48:08.838Z,50.10
2019-02-19T20:53:15.063Z,50.20
2019-02-19T20:58:20.147Z,50.30
2019-02-19T21:03:26.005Z,50.20
2019-02-19T21:08:30.741Z,51.00
2019-02-19T21:13:35.602Z,50.30
2019-02-19T21:18:40.756Z,50.50
2019-02-19T21:23:45.583Z,50.40
2019-02-19T21:28:50.476Z,50.50
2019-02-19T21:33:55.408Z,50.50
2019-02-19T21:39:00.207Z,50.70
2019-02-19T21:44:07.597Z,50.70
2019-02-19T21:49:12.885Z,50.90
2019-02-19T21:54:18.080Z,50.80
2019-02-19T21:59:26.070Z,50.90
2019-02-19T22:04:32.090Z,50.80
2019-02-19T22:09:39.605Z,50.70
2019-02-19T22:14:45.111Z,50.90
2019-02-19T22:19:50.168Z,50.90
2019-02-19T22:24:54.936Z,50.90
2019-02-19T22:30:00.325Z,50.80
2019-02-19T22:35:05.677Z,50.70
2019-02-19T22:40:14.725Z,50.50
2019-02-19T22:45:22.168Z,50.60
2019-02-19T22:50:28.613Z,50.80
2019-02-19T22:55:55.073Z,51.00
2019-02-19T23:01:24.296Z,51.10
2019-02-19T23:06:30.913Z,51.20
2019-02-19T23:11:38.808Z,51.10
2019-02-19T23:16:46.377Z,51.00
2019-02-19T23:21:52.845Z,51.20
2019-02-19T23:26:57.624Z,51.30
2019-02-19T23:32:02.672Z,51.20
2019-02-19T23:37:14.565Z,51.10
2019-02-19T23:42:19.383Z,51.00
2019-02-19T23:47:24.413Z,51.20
2019-02-19T23:52:33.178Z,51.30
2019-02-19T23:57:37.881Z,51.40
